Bordelonville, LA (71320)

12:20 AM CDT on September 22, 2014 (GMT -0500)
Spring Bayou | Change Station
CLOSE
Current Station
Personal Weather Station
Location: Marksville, LA
Elevation: 52 ft
Nearby Weather Stations

Elev 52 ft 31.15 °N, 91.99 °W | Updated 29 seconds ago

Clear
Clear
76.3 °F
Feels Like 76 °F
N
0.0
Wind Variable Wind from South
Gusts 0.0 mph

Today
High -- | Low -- °F
--% Chance of Precip.
Yesterday
High -- | Low -- °F
Precip. -- in
6:55 AM 7:04 PM
Waning Crescent, 4% visible
Pressure 30.03 in
Visibility 10.0 miles
Clouds Clear
Heat Index 76 °F
Dew Point 74 °F
Humidity 93%
Rainfall 0.00 in
Snow Depth Not available.
UV 0 out of 12
Pollen 10.50 out of 12
Air Quality Not available.
Flu Activity Not available.
METAR KESF 220453Z AUTO 00000KT 10SM CLR 22/21 A3003 RMK AO2 SLP168 T02220211

More Conditions Fewer Conditions

Pressure 30.03 in
Visibility 10.0 miles
Clouds Clear
Heat Index 76 °F
Dew Point 74 °F
Humidity 93%
Rainfall 0.00 in
Snow Depth Not available.
UV 0 out of 12
Pollen 10.50 out of 12
Air Quality Not available.
Flu Activity Not available.
METAR KESF 220453Z AUTO 00000KT 10SM CLR 22/21 A3003 RMK AO2 SLP168 T02220211

More Conditions Fewer Conditions

10-Day Weather Forecast

Almanac

Astronomy

Sep. 22, 2014 Rise Set
Actual Time 6:55 AM CDT 7:04 PM CDT
Civil Twilight 6:31 AM CDT 7:28 PM CDT
Nautical Twilight 6:03 AM CDT 7:56 PM CDT
Astronomical Twilight 5:35 AM CDT 8:24 PM CDT
Moon 5:29 AM CDT 6:09 PM CDT
Length of Visible Light 12h 56m
Length of Day
12h 08m
Tomorrow will be 1m 54s shorter.
Waning Crescent, 4% of the Moon is Illuminated
Today
Waning Crescent
Sep 24
New
Oct 1
First Quarter
Oct 8
Full
Oct 15
Last Quarter

Today's Extremes

State Highs State Lows

Community

WunderPhotos

Upload Photos

1,755,391 photos uploaded!

Nearby

Snow Depth

Station Depth Elevation
No new snow has been reported.

Earthquake Activity

City Distance Mag. Time & Date
No recent earthquake activity has been reported nearby.
Minimum magnitude displayed is 2.5.

Coastal Water Temperatures

Place Temperature
No Stations Reporting

Nearby Weather Stations